TVF45AG LFBO-LFPO
Flight info
| Callsign | TVF45AG |
|---|---|
| Flight time | 0h 54m |
| Altitude | 34000 |
| Route | FISTO DCT PERIG DCT DIBAG DCT TUDRA DCT BEVOL UT158 AMB |
| Aircraft | B738/M-SDE2E3FGHIRWXY/LB1 |
Departure
| Time | 2026-05-04 18:14 |
|---|---|
| Airport | Toulouse-Blagnac Airport (LFBO) |
Arrival
| Time | 2026-05-04 19:08 |
|---|---|
| Airport | Paris-Orly Airport (LFPO) |
| Time | Latitude | Longitude | Altitude | Speed | Heading |
|---|---|---|---|---|---|
| 2026-05-04 17:38 | 43.62978 | 1.37315 | 488 ft | 0 kts | 44° |
| 2026-05-04 18:03 | 43.62975 | 1.37312 | 487 ft | 3 kts | 44° |
| 2026-05-04 18:03 | 43.62956 | 1.37287 | 482 ft | 4 kts | 43° |
| 2026-05-04 18:04 | 43.62940 | 1.37267 | 488 ft | 4 kts | 46° |
| 2026-05-04 18:04 | 43.62929 | 1.37238 | 486 ft | 4 kts | 99° |
| 2026-05-04 18:04 | 43.62961 | 1.37188 | 482 ft | 4 kts | 142° |
| 2026-05-04 18:05 | 43.62969 | 1.37180 | 490 ft | 0 kts | 142° |
| 2026-05-04 18:08 | 43.62956 | 1.37194 | 482 ft | 5 kts | 143° |
| 2026-05-04 18:08 | 43.62914 | 1.37208 | 475 ft | 7 kts | 208° |
| 2026-05-04 18:08 | 43.62882 | 1.37154 | 495 ft | 7 kts | 233° |
| 2026-05-04 18:09 | 43.62816 | 1.37059 | 491 ft | 7 kts | 197° |
| 2026-05-04 18:09 | 43.62732 | 1.37118 | 493 ft | 8 kts | 142° |
| 2026-05-04 18:10 | 43.62683 | 1.37170 | 490 ft | 10 kts | 143° |
| 2026-05-04 18:10 | 43.62620 | 1.37235 | 490 ft | 13 kts | 143° |
| 2026-05-04 18:10 | 43.62539 | 1.37319 | 490 ft | 16 kts | 143° |
| 2026-05-04 18:10 | 43.62449 | 1.37411 | 488 ft | 16 kts | 143° |
| 2026-05-04 18:11 | 43.62362 | 1.37501 | 493 ft | 15 kts | 143° |
| 2026-05-04 18:11 | 43.62279 | 1.37587 | 493 ft | 15 kts | 143° |
| 2026-05-04 18:11 | 43.62202 | 1.37664 | 488 ft | 9 kts | 154° |
| 2026-05-04 18:11 | 43.62156 | 1.37656 | 488 ft | 7 kts | 217° |
| 2026-05-04 18:12 | 43.62125 | 1.37604 | 488 ft | 7 kts | 233° |
| 2026-05-04 18:12 | 43.62096 | 1.37552 | 493 ft | 7 kts | 233° |
| 2026-05-04 18:12 | 43.62082 | 1.37495 | 489 ft | 7 kts | 289° |
| 2026-05-04 18:12 | 43.62107 | 1.37459 | 489 ft | 0 kts | 322° |
| 2026-05-04 18:13 | 43.62108 | 1.37458 | 489 ft | 2 kts | 322° |
| 2026-05-04 18:13 | 43.62642 | 1.36897 | 487 ft | 112 kts | 323° |
| 2026-05-04 18:14 | 43.63424 | 1.36098 | 526 ft | 163 kts | 321° |
| 2026-05-04 18:14 | 43.64329 | 1.35154 | 1270 ft | 157 kts | 318° |
| 2026-05-04 18:14 | 43.65162 | 1.34233 | 2172 ft | 150 kts | 319° |
| 2026-05-04 18:15 | 43.66821 | 1.32391 | 3528 ft | 158 kts | 319° |
| 2026-05-04 18:15 | 43.68635 | 1.30385 | 4511 ft | 185 kts | 320° |
| 2026-05-04 18:15 | 43.69704 | 1.29203 | 4698 ft | 207 kts | 320° |
| 2026-05-04 18:16 | 43.70879 | 1.27907 | 4914 ft | 225 kts | 320° |
| 2026-05-04 18:16 | 43.72214 | 1.26685 | 5221 ft | 239 kts | 338° |
| 2026-05-04 18:16 | 43.73897 | 1.26096 | 5495 ft | 257 kts | 344° |
| 2026-05-04 18:17 | 43.77507 | 1.24993 | 6768 ft | 272 kts | 350° |
| 2026-05-04 18:17 | 43.79428 | 1.24810 | 7415 ft | 279 kts | 354° |
| 2026-05-04 18:17 | 43.83385 | 1.24751 | 8796 ft | 289 kts | 356° |
| 2026-05-04 18:18 | 43.85404 | 1.24722 | 9565 ft | 291 kts | 358° |
| 2026-05-04 18:18 | 43.87456 | 1.24682 | 10163 ft | 299 kts | 357° |
| 2026-05-04 18:18 | 43.89615 | 1.24627 | 10363 ft | 322 kts | 357° |
| 2026-05-04 18:18 | 43.91915 | 1.24561 | 10684 ft | 337 kts | 357° |
| 2026-05-04 18:19 | 43.96706 | 1.24412 | 11879 ft | 350 kts | 357° |
| 2026-05-04 18:19 | 43.99151 | 1.24333 | 12576 ft | 353 kts | 357° |
| 2026-05-04 18:19 | 44.01624 | 1.24251 | 13281 ft | 358 kts | 357° |
| 2026-05-04 18:20 | 44.04096 | 1.24167 | 13936 ft | 363 kts | 357° |
| 2026-05-04 18:20 | 44.06639 | 1.24081 | 14550 ft | 368 kts | 357° |
| 2026-05-04 18:20 | 44.09216 | 1.23993 | 15197 ft | 373 kts | 357° |
| 2026-05-04 18:20 | 44.11823 | 1.23904 | 15842 ft | 377 kts | 357° |
| 2026-05-04 18:21 | 44.14466 | 1.23813 | 16495 ft | 382 kts | 357° |
| 2026-05-04 18:21 | 44.17145 | 1.23722 | 17102 ft | 387 kts | 357° |
| 2026-05-04 18:21 | 44.19856 | 1.23629 | 17739 ft | 393 kts | 357° |
| 2026-05-04 18:21 | 44.22607 | 1.23534 | 18355 ft | 397 kts | 357° |
| 2026-05-04 18:22 | 44.25378 | 1.23437 | 18954 ft | 400 kts | 358° |
| 2026-05-04 18:22 | 44.28169 | 1.23338 | 19522 ft | 403 kts | 358° |
| 2026-05-04 18:22 | 44.30987 | 1.23238 | 20082 ft | 407 kts | 358° |
| 2026-05-04 18:22 | 44.33832 | 1.23136 | 20631 ft | 411 kts | 358° |
| 2026-05-04 18:23 | 44.36706 | 1.23034 | 21174 ft | 415 kts | 358° |
| 2026-05-04 18:23 | 44.39606 | 1.22931 | 21711 ft | 419 kts | 358° |
| 2026-05-04 18:23 | 44.42533 | 1.22827 | 22260 ft | 422 kts | 358° |
| 2026-05-04 18:23 | 44.45479 | 1.22715 | 22806 ft | 425 kts | 356° |
| 2026-05-04 18:24 | 44.48408 | 1.22103 | 23283 ft | 428 kts | 344° |
| 2026-05-04 18:24 | 44.51289 | 1.21005 | 23759 ft | 430 kts | 342° |
| 2026-05-04 18:24 | 44.54170 | 1.19799 | 24173 ft | 434 kts | 341° |
| 2026-05-04 18:24 | 44.57065 | 1.18573 | 24584 ft | 437 kts | 341° |
| 2026-05-04 18:25 | 44.59994 | 1.17354 | 24981 ft | 440 kts | 342° |
| 2026-05-04 18:25 | 44.62949 | 1.16153 | 25383 ft | 444 kts | 342° |
| 2026-05-04 18:25 | 44.65930 | 1.14965 | 25786 ft | 447 kts | 343° |
| 2026-05-04 18:25 | 44.68940 | 1.13778 | 26107 ft | 453 kts | 342° |
| 2026-05-04 18:26 | 44.72000 | 1.12578 | 26354 ft | 460 kts | 342° |
| 2026-05-04 18:26 | 44.75092 | 1.11367 | 26736 ft | 462 kts | 342° |
| 2026-05-04 18:26 | 44.78197 | 1.10150 | 27152 ft | 464 kts | 342° |
| 2026-05-04 18:26 | 44.81317 | 1.08925 | 27525 ft | 467 kts | 343° |
| 2026-05-04 18:27 | 44.84459 | 1.07689 | 27882 ft | 470 kts | 343° |
| 2026-05-04 18:27 | 44.87619 | 1.06443 | 28217 ft | 474 kts | 343° |
| 2026-05-04 18:27 | 44.90802 | 1.05187 | 28539 ft | 477 kts | 343° |
| 2026-05-04 18:27 | 44.94006 | 1.03921 | 28885 ft | 479 kts | 343° |
| 2026-05-04 18:28 | 44.97227 | 1.02646 | 29230 ft | 482 kts | 343° |
| 2026-05-04 18:28 | 45.00466 | 1.01363 | 29554 ft | 485 kts | 343° |
| 2026-05-04 18:28 | 45.03728 | 1.00069 | 29838 ft | 489 kts | 343° |
| 2026-05-04 18:28 | 45.06967 | 0.98783 | 30117 ft | 491 kts | 343° |
| 2026-05-04 18:29 | 45.10257 | 0.97475 | 30468 ft | 491 kts | 343° |
| 2026-05-04 18:29 | 45.13554 | 0.96256 | 30917 ft | 489 kts | 346° |
| 2026-05-04 18:29 | 45.16873 | 0.95282 | 31383 ft | 486 kts | 348° |
| 2026-05-04 18:29 | 45.20192 | 0.94434 | 31790 ft | 485 kts | 348° |
| 2026-05-04 18:30 | 45.26839 | 0.92800 | 32469 ft | 484 kts | 348° |
| 2026-05-04 18:30 | 45.30154 | 0.91957 | 32840 ft | 483 kts | 347° |
| 2026-05-04 18:30 | 45.33455 | 0.91095 | 33208 ft | 482 kts | 347° |
| 2026-05-04 18:31 | 45.36754 | 0.90216 | 33555 ft | 481 kts | 347° |
| 2026-05-04 18:31 | 45.40038 | 0.89333 | 33905 ft | 481 kts | 346° |
| 2026-05-04 18:31 | 45.43343 | 0.88440 | 33903 ft | 486 kts | 346° |
| 2026-05-04 18:32 | 45.49988 | 0.86643 | 33913 ft | 484 kts | 346° |
| 2026-05-04 18:32 | 45.55450 | 0.85169 | 33914 ft | 478 kts | 346° |
| 2026-05-04 18:33 | 45.61995 | 0.83397 | 33933 ft | 479 kts | 346° |
| 2026-05-04 18:33 | 45.68558 | 0.81615 | 33926 ft | 480 kts | 346° |
| 2026-05-04 18:34 | 45.75130 | 0.79828 | 33923 ft | 481 kts | 346° |
| 2026-05-04 18:34 | 45.81770 | 0.78533 | 33949 ft | 484 kts | 357° |
| 2026-05-04 18:35 | 45.88512 | 0.78502 | 33935 ft | 485 kts | 360° |
| 2026-05-04 18:35 | 45.95257 | 0.78597 | 33924 ft | 485 kts | 359° |
| 2026-05-04 18:36 | 46.01993 | 0.78595 | 33923 ft | 484 kts | 358° |
| 2026-05-04 18:36 | 46.08725 | 0.78534 | 33926 ft | 483 kts | 358° |
| 2026-05-04 18:37 | 46.15448 | 0.78464 | 33927 ft | 483 kts | 358° |
| 2026-05-04 18:37 | 46.22159 | 0.78398 | 33931 ft | 482 kts | 358° |
| 2026-05-04 18:38 | 46.28862 | 0.78335 | 33924 ft | 481 kts | 358° |
| 2026-05-04 18:38 | 46.35559 | 0.78273 | 33926 ft | 481 kts | 358° |
| 2026-05-04 18:39 | 46.42240 | 0.78210 | 33931 ft | 480 kts | 358° |
| 2026-05-04 18:39 | 46.48916 | 0.78147 | 33927 ft | 479 kts | 358° |
| 2026-05-04 18:40 | 46.55571 | 0.78472 | 33918 ft | 479 kts | 10° |
| 2026-05-04 18:40 | 46.62026 | 0.80477 | 33465 ft | 469 kts | 13° |
| 2026-05-04 18:40 | 46.65180 | 0.81547 | 33105 ft | 463 kts | 13° |
| 2026-05-04 18:41 | 46.68303 | 0.82592 | 32734 ft | 458 kts | 13° |
| 2026-05-04 18:41 | 46.71400 | 0.83605 | 32337 ft | 455 kts | 13° |
| 2026-05-04 18:41 | 46.74477 | 0.84594 | 31961 ft | 451 kts | 13° |
| 2026-05-04 18:41 | 46.77535 | 0.85566 | 31577 ft | 448 kts | 13° |
| 2026-05-04 18:42 | 46.80569 | 0.86527 | 31196 ft | 445 kts | 13° |
| 2026-05-04 18:42 | 46.83582 | 0.87482 | 30820 ft | 442 kts | 13° |
| 2026-05-04 18:42 | 46.86578 | 0.88433 | 30445 ft | 439 kts | 13° |
| 2026-05-04 18:42 | 46.89554 | 0.89379 | 30076 ft | 436 kts | 13° |
| 2026-05-04 18:43 | 46.92513 | 0.90322 | 29646 ft | 434 kts | 13° |
| 2026-05-04 18:43 | 46.95450 | 0.91260 | 29226 ft | 430 kts | 13° |
| 2026-05-04 18:43 | 46.98364 | 0.92191 | 28844 ft | 426 kts | 13° |
| 2026-05-04 18:43 | 47.01246 | 0.93113 | 28439 ft | 423 kts | 13° |
| 2026-05-04 18:44 | 47.04107 | 0.94023 | 28037 ft | 419 kts | 13° |
| 2026-05-04 18:44 | 47.05991 | 0.94620 | 27784 ft | 417 kts | 13° |
| 2026-05-04 18:44 | 47.09765 | 0.95815 | 27268 ft | 412 kts | 13° |
| 2026-05-04 18:44 | 47.12560 | 0.96701 | 26886 ft | 409 kts | 13° |
| 2026-05-04 18:45 | 47.15332 | 0.97582 | 26509 ft | 406 kts | 13° |
| 2026-05-04 18:45 | 47.18085 | 0.98458 | 26132 ft | 403 kts | 12° |
| 2026-05-04 18:45 | 47.20815 | 0.99327 | 25757 ft | 400 kts | 12° |
| 2026-05-04 18:45 | 47.23530 | 1.00193 | 25385 ft | 398 kts | 12° |
| 2026-05-04 18:46 | 47.26228 | 1.01055 | 25016 ft | 395 kts | 12° |
| 2026-05-04 18:46 | 47.28907 | 1.01912 | 24640 ft | 393 kts | 12° |
| 2026-05-04 18:46 | 47.31574 | 1.02765 | 24270 ft | 391 kts | 12° |
| 2026-05-04 18:46 | 47.34223 | 1.03614 | 23902 ft | 389 kts | 12° |
| 2026-05-04 18:47 | 47.36830 | 1.04450 | 23522 ft | 388 kts | 12° |
| 2026-05-04 18:47 | 47.39493 | 1.05304 | 23090 ft | 385 kts | 12° |
| 2026-05-04 18:47 | 47.42066 | 1.06130 | 22696 ft | 382 kts | 12° |
| 2026-05-04 18:47 | 47.44629 | 1.07110 | 22303 ft | 379 kts | 18° |
| 2026-05-04 18:48 | 47.47134 | 1.08447 | 21921 ft | 376 kts | 20° |
| 2026-05-04 18:48 | 47.49538 | 1.09778 | 21557 ft | 373 kts | 20° |
| 2026-05-04 18:48 | 47.51962 | 1.11092 | 21197 ft | 370 kts | 19° |
| 2026-05-04 18:48 | 47.54380 | 1.12346 | 20837 ft | 367 kts | 19° |
| 2026-05-04 18:49 | 47.56787 | 1.13564 | 20484 ft | 364 kts | 19° |
| 2026-05-04 18:49 | 47.59174 | 1.14765 | 20134 ft | 361 kts | 19° |
| 2026-05-04 18:49 | 47.61545 | 1.15960 | 19789 ft | 358 kts | 19° |
| 2026-05-04 18:49 | 47.63896 | 1.17148 | 19441 ft | 356 kts | 19° |
| 2026-05-04 18:50 | 47.66232 | 1.18333 | 19088 ft | 354 kts | 19° |
| 2026-05-04 18:50 | 47.68551 | 1.19513 | 18747 ft | 351 kts | 19° |
| 2026-05-04 18:50 | 47.70858 | 1.20688 | 18405 ft | 349 kts | 19° |
| 2026-05-04 18:50 | 47.73147 | 1.21856 | 18040 ft | 347 kts | 19° |
| 2026-05-04 18:51 | 47.75428 | 1.23021 | 17656 ft | 345 kts | 19° |
| 2026-05-04 18:51 | 47.77693 | 1.24180 | 17290 ft | 343 kts | 19° |
| 2026-05-04 18:51 | 47.79940 | 1.25330 | 16938 ft | 341 kts | 19° |
| 2026-05-04 18:51 | 47.82173 | 1.26474 | 16590 ft | 338 kts | 19° |
| 2026-05-04 18:52 | 47.84389 | 1.27611 | 16250 ft | 335 kts | 19° |
| 2026-05-04 18:52 | 47.86586 | 1.28739 | 15912 ft | 333 kts | 19° |
| 2026-05-04 18:52 | 47.88768 | 1.29860 | 15584 ft | 330 kts | 19° |
| 2026-05-04 18:52 | 47.90932 | 1.30973 | 15254 ft | 328 kts | 19° |
| 2026-05-04 18:53 | 47.93084 | 1.32080 | 14923 ft | 326 kts | 19° |
| 2026-05-04 18:53 | 47.95224 | 1.33183 | 14594 ft | 324 kts | 19° |
| 2026-05-04 18:53 | 47.97349 | 1.34279 | 14268 ft | 323 kts | 19° |
| 2026-05-04 18:53 | 47.99465 | 1.35371 | 13941 ft | 321 kts | 19° |
| 2026-05-04 18:54 | 48.01571 | 1.36459 | 13593 ft | 319 kts | 19° |
| 2026-05-04 18:54 | 48.03666 | 1.37542 | 13242 ft | 318 kts | 19° |
| 2026-05-04 18:54 | 48.05744 | 1.38635 | 12906 ft | 315 kts | 22° |
| 2026-05-04 18:54 | 48.07643 | 1.40211 | 12653 ft | 310 kts | 35° |
| 2026-05-04 18:55 | 48.09392 | 1.42053 | 12410 ft | 306 kts | 36° |
| 2026-05-04 18:55 | 48.12878 | 1.45697 | 11936 ft | 305 kts | 35° |
| 2026-05-04 18:55 | 48.14620 | 1.47479 | 11780 ft | 301 kts | 35° |
| 2026-05-04 18:56 | 48.16341 | 1.49225 | 11639 ft | 297 kts | 35° |
| 2026-05-04 18:56 | 48.18042 | 1.50946 | 11503 ft | 294 kts | 34° |
| 2026-05-04 18:56 | 48.19733 | 1.52657 | 11364 ft | 293 kts | 35° |
| 2026-05-04 18:56 | 48.21433 | 1.54379 | 11238 ft | 296 kts | 35° |
| 2026-05-04 18:57 | 48.23146 | 1.56116 | 11096 ft | 298 kts | 35° |
| 2026-05-04 18:57 | 48.24861 | 1.57856 | 10950 ft | 297 kts | 35° |
| 2026-05-04 18:57 | 48.26564 | 1.59588 | 10804 ft | 295 kts | 35° |
| 2026-05-04 18:57 | 48.28259 | 1.61312 | 10666 ft | 294 kts | 35° |
| 2026-05-04 18:58 | 48.29947 | 1.63031 | 10527 ft | 292 kts | 35° |
| 2026-05-04 18:58 | 48.31629 | 1.64745 | 10344 ft | 293 kts | 35° |
| 2026-05-04 18:58 | 48.33321 | 1.66471 | 10107 ft | 295 kts | 35° |
| 2026-05-04 18:58 | 48.35026 | 1.68211 | 9791 ft | 297 kts | 35° |
| 2026-05-04 18:59 | 48.36727 | 1.69948 | 9550 ft | 291 kts | 35° |
| 2026-05-04 18:59 | 48.38363 | 1.71618 | 9546 ft | 278 kts | 35° |
| 2026-05-04 18:59 | 48.39954 | 1.73245 | 9418 ft | 278 kts | 35° |
| 2026-05-04 18:59 | 48.41578 | 1.74907 | 9051 ft | 284 kts | 35° |
| 2026-05-04 19:00 | 48.43212 | 1.76580 | 8709 ft | 284 kts | 35° |
| 2026-05-04 19:00 | 48.44841 | 1.78250 | 8380 ft | 283 kts | 35° |
| 2026-05-04 19:00 | 48.46442 | 1.79890 | 8056 ft | 282 kts | 35° |
| 2026-05-04 19:00 | 48.48047 | 1.81538 | 7724 ft | 277 kts | 35° |
| 2026-05-04 19:01 | 48.49620 | 1.83153 | 7412 ft | 271 kts | 35° |
| 2026-05-04 19:01 | 48.51161 | 1.84737 | 7101 ft | 265 kts | 35° |
| 2026-05-04 19:01 | 48.52672 | 1.86291 | 6797 ft | 261 kts | 35° |
| 2026-05-04 19:01 | 48.54157 | 1.87820 | 6514 ft | 256 kts | 35° |
| 2026-05-04 19:02 | 48.55613 | 1.89319 | 6221 ft | 252 kts | 35° |
| 2026-05-04 19:02 | 48.57045 | 1.90802 | 5921 ft | 247 kts | 37° |
| 2026-05-04 19:02 | 48.58145 | 1.92734 | 5630 ft | 244 kts | 62° |
| 2026-05-04 19:02 | 48.58927 | 1.94998 | 5383 ft | 243 kts | 62° |
| 2026-05-04 19:03 | 48.59724 | 1.97236 | 5133 ft | 241 kts | 62° |
| 2026-05-04 19:03 | 48.60522 | 1.99465 | 4864 ft | 241 kts | 61° |
| 2026-05-04 19:03 | 48.61366 | 2.01609 | 4753 ft | 233 kts | 59° |
| 2026-05-04 19:03 | 48.62176 | 2.03713 | 4463 ft | 229 kts | 61° |
| 2026-05-04 19:04 | 48.62927 | 2.05802 | 4147 ft | 223 kts | 62° |
| 2026-05-04 19:04 | 48.63644 | 2.07851 | 3853 ft | 218 kts | 62° |
| 2026-05-04 19:04 | 48.64347 | 2.09864 | 3562 ft | 215 kts | 62° |
| 2026-05-04 19:04 | 48.65031 | 2.11821 | 3294 ft | 206 kts | 62° |
| 2026-05-04 19:05 | 48.65684 | 2.13688 | 3024 ft | 196 kts | 62° |
| 2026-05-04 19:05 | 48.66310 | 2.15475 | 2752 ft | 188 kts | 62° |
| 2026-05-04 19:05 | 48.66905 | 2.17173 | 2506 ft | 178 kts | 61° |
| 2026-05-04 19:05 | 48.67472 | 2.18791 | 2276 ft | 172 kts | 62° |
| 2026-05-04 19:06 | 48.68019 | 2.20351 | 2106 ft | 161 kts | 62° |
| 2026-05-04 19:06 | 48.68524 | 2.21789 | 1865 ft | 150 kts | 62° |
| 2026-05-04 19:06 | 48.69010 | 2.23173 | 1675 ft | 149 kts | 61° |
| 2026-05-04 19:06 | 48.69492 | 2.24547 | 1464 ft | 147 kts | 61° |
| 2026-05-04 19:07 | 48.69972 | 2.25915 | 1233 ft | 147 kts | 60° |
| 2026-05-04 19:07 | 48.70458 | 2.27296 | 1043 ft | 150 kts | 60° |
| 2026-05-04 19:07 | 48.70948 | 2.28689 | 831 ft | 150 kts | 60° |
| 2026-05-04 19:07 | 48.71442 | 2.30076 | 626 ft | 149 kts | 60° |
| 2026-05-04 19:08 | 48.71920 | 2.31454 | 418 ft | 148 kts | 60° |
| 2026-05-04 19:08 | 48.72395 | 2.32806 | 297 ft | 138 kts | 62° |
| 2026-05-04 19:08 | 48.72746 | 2.33799 | 298 ft | 76 kts | 62° |
| 2026-05-04 19:08 | 48.72905 | 2.34250 | 294 ft | 35 kts | 64° |
| 2026-05-04 19:09 | 48.72991 | 2.34563 | 295 ft | 24 kts | 79° |
| 2026-05-04 19:09 | 48.73007 | 2.34723 | 292 ft | 13 kts | 81° |
| 2026-05-04 19:09 | 48.73018 | 2.34837 | 294 ft | 8 kts | 81° |
| 2026-05-04 19:09 | 48.73027 | 2.34922 | 292 ft | 8 kts | 81° |
| 2026-05-04 19:10 | 48.73035 | 2.35005 | 292 ft | 8 kts | 81° |
| 2026-05-04 19:10 | 48.73041 | 2.35085 | 293 ft | 8 kts | 86° |
| 2026-05-04 19:10 | 48.73037 | 2.35143 | 295 ft | 4 kts | 101° |
| 2026-05-04 19:10 | 48.73036 | 2.35155 | 296 ft | 0 kts | 101° |
| 2026-05-04 19:11 | 48.73034 | 2.35165 | 295 ft | 2 kts | 107° |
| 2026-05-04 19:11 | 48.73031 | 2.35178 | 296 ft | 0 kts | 110° |
| 2026-05-04 19:12 | 48.73028 | 2.35188 | 295 ft | 2 kts | 110° |
| 2026-05-04 19:13 | 48.73019 | 2.35216 | 296 ft | 3 kts | 119° |
| 2026-05-04 19:13 | 48.73005 | 2.35242 | 294 ft | 3 kts | 135° |
| 2026-05-04 19:13 | 48.72990 | 2.35265 | 293 ft | 3 kts | 139° |
| 2026-05-04 19:13 | 48.72973 | 2.35284 | 294 ft | 3 kts | 149° |
| 2026-05-04 19:14 | 48.72953 | 2.35300 | 297 ft | 3 kts | 152° |
| 2026-05-04 19:14 | 48.72942 | 2.35306 | 294 ft | 0 kts | 159° |
| 2026-05-04 19:15 | 48.72935 | 2.35310 | 294 ft | 3 kts | 159° |
| 2026-05-04 19:15 | 48.72905 | 2.35352 | 292 ft | 8 kts | 109° |
| 2026-05-04 19:15 | 48.72874 | 2.35420 | 294 ft | 8 kts | 148° |
| 2026-05-04 19:16 | 48.72822 | 2.35444 | 292 ft | 8 kts | 164° |
| 2026-05-04 19:16 | 48.72771 | 2.35468 | 296 ft | 8 kts | 155° |
| 2026-05-04 19:16 | 48.72752 | 2.35536 | 295 ft | 8 kts | 80° |
| 2026-05-04 19:16 | 48.72765 | 2.35611 | 296 ft | 7 kts | 75° |
| 2026-05-04 19:17 | 48.72769 | 2.35652 | 293 ft | 6 kts | 99° |
| 2026-05-04 19:17 | 48.72745 | 2.35691 | 292 ft | 4 kts | 145° |
| 2026-05-04 19:17 | 48.72731 | 2.35705 | 292 ft | 2 kts | 147° |
| 2026-05-04 19:17 | 48.72729 | 2.35708 | 292 ft | 0 kts | 147° |
| 2026-05-04 19:18 | 48.72725 | 2.35712 | 292 ft | 0 kts | 147° |